createdAt,value
2023-03-18T00:02:10.042Z,9.74
2023-03-18T00:04:58.587Z,9.73
2023-03-18T00:07:47.720Z,9.72
2023-03-18T00:10:37.957Z,9.64
2023-03-18T00:13:27.249Z,9.63
2023-03-18T00:16:16.595Z,9.60
2023-03-18T00:19:05.421Z,9.64
2023-03-18T00:21:54.220Z,9.54
2023-03-18T00:24:42.701Z,9.56
2023-03-18T00:27:32.561Z,9.56
2023-03-18T00:30:22.074Z,9.50
2023-03-18T00:33:10.929Z,9.36
2023-03-18T00:35:59.731Z,9.45
2023-03-18T00:38:51.105Z,8.91
2023-03-18T00:41:39.907Z,9.43
2023-03-18T00:44:30.648Z,9.47
2023-03-18T00:47:19.150Z,9.39
2023-03-18T00:50:09.593Z,9.36
2023-03-18T00:52:58.094Z,9.38
2023-03-18T00:55:46.961Z,9.37
2023-03-18T00:58:36.883Z,9.21
2023-03-18T01:01:27.514Z,9.32
2023-03-18T01:04:16.071Z,9.25
2023-03-18T01:07:04.607Z,9.21
2023-03-18T01:09:54.712Z,9.19
2023-03-18T01:12:43.602Z,9.15
2023-03-18T01:15:32.072Z,9.16
2023-03-18T01:18:22.247Z,9.15
2023-03-18T01:21:12.001Z,9.12
2023-03-18T01:24:01.465Z,9.11
2023-03-18T01:26:50.517Z,8.71
2023-03-18T01:29:39.549Z,9.16
2023-03-18T01:32:28.831Z,9.13
2023-03-18T01:35:20.074Z,9.08
2023-03-18T01:38:09.783Z,9.01
2023-03-18T01:40:58.356Z,8.97
2023-03-18T01:43:47.344Z,8.87
2023-03-18T01:46:40.049Z,8.92
2023-03-18T01:49:30.354Z,8.92
2023-03-18T01:52:22.944Z,8.80
2023-03-18T01:55:15.104Z,8.79
2023-03-18T01:58:21.334Z,8.85
2023-03-18T02:01:14.105Z,8.61
2023-03-18T02:04:04.042Z,8.76
2023-03-18T02:06:52.544Z,8.76
2023-03-18T02:09:42.407Z,8.75
2023-03-18T02:12:35.479Z,8.71
2023-03-18T02:15:27.214Z,8.68
2023-03-18T02:18:19.917Z,8.59
2023-03-18T02:21:21.887Z,8.36
2023-03-18T02:24:17.278Z,8.23
2023-03-18T02:27:16.137Z,8.25
2023-03-18T02:30:07.880Z,7.95
2023-03-18T02:32:58.105Z,8.31
2023-03-18T02:35:48.450Z,8.37
2023-03-18T02:38:36.894Z,8.41
2023-03-18T02:41:28.546Z,8.43
2023-03-18T02:44:19.448Z,8.35
2023-03-18T02:47:11.576Z,8.33
2023-03-18T02:50:00.834Z,8.05
2023-03-18T02:52:49.304Z,8.28
2023-03-18T02:55:37.759Z,8.21
2023-03-18T02:58:26.274Z,8.14
2023-03-18T03:01:16.138Z,8.09
2023-03-18T03:04:05.198Z,8.04
2023-03-18T03:06:54.874Z,7.99
2023-03-18T03:09:43.379Z,7.92
2023-03-18T03:12:31.829Z,8.06
2023-03-18T03:15:20.530Z,8.06
2023-03-18T03:18:11.473Z,8.00
2023-03-18T03:20:59.979Z,8.02
2023-03-18T03:23:48.798Z,7.99
2023-03-18T03:26:37.527Z,7.93
2023-03-18T03:29:26.017Z,7.87
2023-03-18T03:32:14.574Z,7.78
2023-03-18T03:35:05.238Z,7.69
2023-03-18T03:37:53.790Z,7.67
2023-03-18T03:40:42.246Z,7.71
2023-03-18T03:43:30.726Z,7.75
2023-03-18T03:46:19.290Z,7.74
2023-03-18T03:49:07.851Z,7.68
2023-03-18T03:51:57.872Z,7.63
2023-03-18T03:54:46.429Z,7.59
2023-03-18T03:57:35.560Z,7.51
2023-03-18T04:00:24.603Z,7.44
2023-03-18T04:03:13.462Z,7.38
2023-03-18T04:06:02.055Z,7.34
2023-03-18T04:08:52.319Z,7.27
2023-03-18T04:11:41.067Z,7.11
2023-03-18T04:14:29.535Z,7.19
2023-03-18T04:17:17.983Z,7.16
2023-03-18T04:20:07.259Z,7.19
2023-03-18T04:22:55.770Z,7.20
2023-03-18T04:25:45.614Z,7.27
2023-03-18T04:28:34.169Z,7.26
2023-03-18T04:31:22.653Z,7.27
2023-03-18T04:34:11.190Z,7.31
2023-03-18T04:36:59.688Z,7.29
2023-03-18T04:39:48.618Z,7.23
2023-03-18T04:42:38.796Z,7.06
2023-03-18T04:45:27.271Z,6.60
2023-03-18T04:48:15.722Z,6.94
2023-03-18T04:51:04.380Z,6.94
2023-03-18T04:53:52.897Z,7.24
2023-03-18T04:56:41.588Z,7.23
2023-03-18T04:59:31.408Z,7.20
2023-03-18T05:02:20.461Z,7.14
2023-03-18T05:05:09.794Z,7.05
2023-03-18T05:07:58.415Z,7.01
2023-03-18T05:10:47.559Z,7.00
2023-03-18T05:13:36.047Z,6.82
2023-03-18T05:16:25.992Z,6.81
2023-03-18T05:19:15.549Z,6.91
2023-03-18T05:22:04.089Z,6.98
2023-03-18T05:24:52.628Z,6.97
2023-03-18T05:27:41.754Z,6.84
2023-03-18T05:30:30.374Z,6.86
2023-03-18T05:33:22.736Z,6.87
2023-03-18T05:36:11.782Z,6.96
2023-03-18T05:39:00.271Z,6.91
2023-03-18T05:41:48.731Z,6.97
2023-03-18T05:44:37.214Z,6.85
2023-03-18T05:47:25.902Z,6.99
2023-03-18T05:50:15.767Z,7.10
2023-03-18T05:53:05.473Z,7.05
2023-03-18T05:55:54.000Z,6.94
2023-03-18T05:58:42.529Z,7.18
2023-03-18T06:01:31.486Z,7.26
2023-03-18T06:04:20.240Z,7.26
2023-03-18T06:07:10.244Z,7.26
2023-03-18T06:09:58.778Z,7.18
2023-03-18T06:12:47.752Z,7.09
2023-03-18T06:15:36.349Z,6.98
2023-03-18T06:18:24.806Z,6.98
2023-03-18T06:21:13.597Z,7.06
2023-03-18T06:24:03.583Z,7.19
2023-03-18T06:26:52.570Z,7.14
2023-03-18T06:29:41.014Z,7.25
2023-03-18T06:32:30.095Z,7.36
2023-03-18T06:35:18.928Z,7.41
2023-03-18T06:38:08.722Z,7.34
2023-03-18T06:40:58.597Z,7.44
2023-03-18T06:43:50.566Z,7.29
2023-03-18T06:46:39.106Z,7.39
2023-03-18T06:49:27.659Z,7.34
2023-03-18T06:52:17.219Z,7.27
2023-03-18T06:55:07.039Z,6.72
2023-03-18T06:57:57.290Z,7.27
2023-03-18T07:00:47.632Z,7.32
2023-03-18T07:03:36.209Z,7.13
2023-03-18T07:06:24.652Z,7.59
2023-03-18T07:09:15.211Z,7.95
2023-03-18T07:12:03.765Z,8.35
2023-03-18T07:14:54.450Z,8.71
2023-03-18T07:17:43.229Z,8.58
2023-03-18T07:20:33.236Z,9.44
2023-03-18T07:23:21.955Z,9.75
2023-03-18T07:26:12.400Z,9.21
2023-03-18T07:29:00.901Z,9.32
2023-03-18T07:31:51.202Z,9.19
2023-03-18T07:34:39.761Z,9.08
2023-03-18T07:37:28.754Z,9.60
2023-03-18T07:40:17.712Z,10.04
2023-03-18T07:43:06.603Z,10.53
2023-03-18T07:45:55.622Z,10.81
2023-03-18T07:48:45.498Z,11.34
2023-03-18T07:51:34.074Z,11.62
2023-03-18T07:54:23.945Z,11.92
2023-03-18T07:57:12.926Z,11.64
2023-03-18T08:00:01.460Z,12.19
2023-03-18T08:02:49.990Z,12.42
2023-03-18T08:05:40.996Z,12.80
2023-03-18T08:08:29.647Z,13.00
2023-03-18T08:11:18.475Z,13.11
2023-03-18T08:14:07.236Z,13.39
2023-03-18T08:16:55.693Z,13.55
2023-03-18T08:19:46.961Z,12.85
2023-03-18T08:22:36.842Z,13.35
2023-03-18T08:25:25.421Z,13.47
2023-03-18T08:28:13.913Z,13.36
2023-03-18T08:31:03.397Z,13.52
2023-03-18T08:33:54.164Z,13.53
2023-03-18T08:36:43.217Z,13.56
2023-03-18T08:39:33.685Z,13.37
2023-03-18T08:42:22.234Z,13.26
2023-03-18T08:45:12.329Z,13.27
2023-03-18T08:48:00.777Z,13.36
2023-03-18T08:50:49.254Z,13.39
2023-03-18T08:53:37.834Z,13.50
2023-03-18T08:56:28.147Z,13.60
2023-03-18T08:59:17.725Z,13.67
2023-03-18T09:02:06.486Z,13.73
2023-03-18T09:04:55.815Z,13.92
2023-03-18T09:07:45.381Z,14.11
2023-03-18T09:10:34.284Z,14.36
2023-03-18T09:13:24.562Z,14.66
2023-03-18T09:16:13.136Z,15.00
2023-03-18T09:19:01.660Z,15.34
2023-03-18T09:21:50.189Z,15.75
2023-03-18T09:24:38.713Z,16.30
2023-03-18T09:27:27.235Z,16.82
2023-03-18T09:30:17.352Z,17.17
2023-03-18T09:33:06.826Z,17.37
2023-03-18T09:35:55.389Z,17.30
2023-03-18T09:38:43.945Z,17.20
2023-03-18T09:41:41.493Z,17.24
2023-03-18T09:44:33.485Z,17.50
2023-03-18T09:47:54.392Z,17.70
2023-03-18T09:50:49.055Z,17.76
2023-03-18T09:53:42.377Z,17.98
2023-03-18T09:56:34.449Z,18.14
2023-03-18T09:59:26.635Z,17.93
2023-03-18T10:02:23.299Z,17.68
2023-03-18T10:05:16.730Z,17.43
2023-03-18T10:08:09.107Z,17.41
2023-03-18T10:10:58.250Z,17.61
2023-03-18T10:13:53.278Z,17.75
2023-03-18T10:16:50.207Z,17.93
2023-03-18T10:19:39.222Z,18.29
2023-03-18T10:23:01.170Z,18.52
2023-03-18T10:25:53.537Z,18.69
2023-03-18T10:28:50.714Z,18.58
2023-03-18T10:31:54.546Z,18.55
2023-03-18T10:34:51.105Z,18.61
2023-03-18T10:37:49.220Z,18.73
2023-03-18T10:40:41.284Z,19.12
2023-03-18T10:43:31.714Z,19.30
2023-03-18T10:46:22.369Z,19.41
2023-03-18T10:49:14.129Z,19.69
2023-03-18T10:52:07.665Z,19.84
2023-03-18T10:54:56.132Z,19.90
2023-03-18T10:57:46.037Z,19.73
2023-03-18T11:00:35.599Z,19.57
2023-03-18T11:03:27.780Z,19.74
2023-03-18T11:06:20.083Z,19.49
2023-03-18T11:09:10.385Z,19.68
2023-03-18T11:12:02.888Z,19.39
2023-03-18T11:14:53.843Z,19.67
2023-03-18T11:17:43.324Z,20.07
2023-03-18T11:20:43.124Z,19.83
2023-03-18T11:23:46.180Z,20.07
2023-03-18T11:26:45.625Z,20.07
2023-03-18T11:29:35.672Z,20.15
2023-03-18T11:32:29.048Z,20.33
2023-03-18T11:35:21.587Z,20.41
2023-03-18T11:38:16.269Z,20.39
2023-03-18T11:41:08.631Z,20.47
2023-03-18T11:44:00.072Z,20.39
2023-03-18T11:46:52.305Z,19.99
2023-03-18T11:49:43.721Z,19.84
2023-03-18T11:52:39.494Z,19.61
2023-03-18T11:55:37.334Z,19.49
2023-03-18T11:58:49.718Z,19.72
2023-03-18T12:01:45.381Z,20.11
2023-03-18T12:04:56.595Z,20.37
2023-03-18T12:07:53.868Z,20.09
2023-03-18T12:10:48.226Z,20.18
2023-03-18T12:13:45.620Z,20.12
2023-03-18T12:16:53.174Z,19.85
2023-03-18T12:19:51.612Z,20.02
2023-03-18T12:23:03.293Z,20.23
2023-03-18T12:25:59.124Z,20.25
2023-03-18T12:29:18.575Z,20.37
2023-03-18T12:32:13.494Z,20.51
2023-03-18T12:35:20.693Z,20.58
2023-03-18T12:38:29.141Z,20.44
2023-03-18T12:41:21.421Z,20.41
2023-03-18T12:44:20.342Z,20.31
2023-03-18T12:47:12.089Z,20.18
2023-03-18T12:50:03.746Z,20.34
2023-03-18T12:52:55.261Z,20.37
2023-03-18T12:55:47.910Z,20.36
2023-03-18T12:58:39.268Z,20.33
2023-03-18T13:01:32.444Z,20.47
2023-03-18T13:04:22.679Z,20.60
2023-03-18T13:07:16.761Z,20.58
2023-03-18T13:10:14.072Z,20.50
2023-03-18T13:13:09.308Z,20.44
2023-03-18T13:15:57.801Z,20.54
2023-03-18T13:18:48.516Z,19.90
2023-03-18T13:21:41.304Z,20.08
2023-03-18T13:24:43.316Z,20.24
2023-03-18T13:27:40.614Z,20.35
2023-03-18T13:30:39.227Z,20.03
2023-03-18T13:33:41.260Z,19.84
2023-03-18T13:36:46.516Z,19.86
2023-03-18T13:39:44.692Z,19.57
2023-03-18T13:42:34.268Z,20.08
2023-03-18T13:45:26.525Z,19.95
2023-03-18T13:48:19.669Z,19.75
2023-03-18T13:51:20.453Z,19.76
2023-03-18T13:54:15.540Z,19.94
2023-03-18T13:57:18.013Z,20.21
2023-03-18T14:00:23.805Z,20.27
2023-03-18T14:03:21.780Z,20.56
2023-03-18T14:06:40.613Z,20.68
2023-03-18T14:09:36.829Z,20.58
2023-03-18T14:12:40.799Z,20.54
2023-03-18T14:15:47.279Z,20.55
2023-03-18T14:18:37.796Z,20.67
2023-03-18T14:21:28.864Z,20.66
2023-03-18T14:24:24.526Z,20.59
2023-03-18T14:27:18.712Z,20.17
2023-03-18T14:30:37.798Z,20.41
2023-03-18T14:33:33.157Z,20.26
2023-03-18T14:36:46.996Z,20.13
2023-03-18T14:39:39.113Z,20.23
2023-03-18T14:42:43.983Z,20.18
2023-03-18T14:45:35.233Z,20.06
2023-03-18T14:48:29.237Z,20.06
2023-03-18T14:51:19.453Z,19.90
2023-03-18T14:54:19.021Z,19.83
2023-03-18T14:57:08.204Z,19.77
2023-03-18T14:59:56.986Z,19.65
2023-03-18T15:02:46.401Z,19.57
2023-03-18T15:05:37.013Z,19.43
2023-03-18T15:08:37.433Z,19.29
2023-03-18T15:11:41.221Z,19.32
2023-03-18T15:14:31.414Z,19.03
2023-03-18T15:17:19.842Z,19.06
2023-03-18T15:20:13.876Z,19.21
2023-03-18T15:23:03.826Z,19.28
2023-03-18T15:25:52.708Z,19.31
2023-03-18T15:28:43.357Z,19.36
2023-03-18T15:31:33.770Z,19.20
2023-03-18T15:34:24.234Z,19.20
2023-03-18T15:37:26.790Z,19.03
2023-03-18T15:40:30.048Z,19.04
2023-03-18T15:43:22.059Z,19.00
2023-03-18T15:46:17.589Z,18.75
2023-03-18T15:49:07.444Z,19.05
2023-03-18T15:52:01.012Z,19.17
2023-03-18T15:54:49.529Z,19.08
2023-03-18T15:57:40.347Z,19.02
2023-03-18T16:00:28.838Z,18.59
2023-03-18T16:03:23.301Z,18.88
2023-03-18T16:06:11.854Z,18.93
2023-03-18T16:09:00.460Z,18.73
2023-03-18T16:11:54.598Z,18.66
2023-03-18T16:14:44.574Z,18.64
2023-03-18T16:17:33.473Z,18.52
2023-03-18T16:20:25.638Z,18.44
2023-03-18T16:23:15.598Z,18.29
2023-03-18T16:26:04.203Z,18.32
2023-03-18T16:28:52.957Z,18.29
2023-03-18T16:31:41.560Z,18.15
2023-03-18T16:34:30.181Z,18.14
2023-03-18T16:37:24.597Z,18.13
2023-03-18T16:40:17.122Z,18.04
2023-03-18T16:43:05.719Z,17.97
2023-03-18T16:45:54.968Z,17.89
2023-03-18T16:48:43.483Z,17.85
2023-03-18T16:51:32.646Z,17.78
2023-03-18T16:54:24.117Z,17.64
2023-03-18T16:57:17.250Z,17.64
2023-03-18T17:00:12.805Z,17.21
2023-03-18T17:03:02.205Z,17.57
2023-03-18T17:05:52.117Z,17.51
2023-03-18T17:08:40.914Z,17.40
2023-03-18T17:11:30.805Z,17.29
2023-03-18T17:14:30.540Z,17.14
2023-03-18T17:17:23.041Z,17.05
2023-03-18T17:20:17.216Z,16.83
2023-03-18T17:23:05.979Z,16.80
2023-03-18T17:25:56.755Z,16.27
2023-03-18T17:28:49.014Z,16.57
2023-03-18T17:31:37.623Z,16.47
2023-03-18T17:34:26.539Z,16.39
2023-03-18T17:37:15.025Z,16.22
2023-03-18T17:40:03.581Z,16.14
2023-03-18T17:42:52.722Z,16.05
2023-03-18T17:45:42.891Z,15.97
2023-03-18T17:48:32.377Z,15.79
2023-03-18T17:51:23.803Z,15.73
2023-03-18T17:54:19.713Z,15.62
2023-03-18T17:57:11.438Z,15.50
2023-03-18T17:59:59.897Z,15.44
2023-03-18T18:02:50.010Z,15.33
2023-03-18T18:05:38.477Z,15.22
2023-03-18T18:08:28.247Z,15.09
2023-03-18T18:11:20.844Z,14.47
2023-03-18T18:14:16.385Z,14.47
2023-03-18T18:17:13.818Z,14.76
2023-03-18T18:20:04.485Z,14.54
2023-03-18T18:22:55.012Z,14.55
2023-03-18T18:25:43.489Z,14.26
2023-03-18T18:28:34.174Z,14.20
2023-03-18T18:31:24.051Z,14.24
2023-03-18T18:34:13.224Z,14.13
2023-03-18T18:37:03.091Z,14.05
2023-03-18T18:39:54.221Z,14.03
2023-03-18T18:42:43.497Z,13.96
2023-03-18T18:45:33.135Z,13.88
2023-03-18T18:48:25.988Z,13.90
2023-03-18T18:51:18.219Z,13.74
2023-03-18T18:54:09.582Z,13.81
2023-03-18T18:56:58.500Z,13.67
2023-03-18T18:59:47.559Z,13.51
2023-03-18T19:02:37.414Z,13.42
2023-03-18T19:05:25.978Z,13.22
2023-03-18T19:08:22.529Z,12.85
2023-03-18T19:11:12.614Z,13.11
2023-03-18T19:14:18.476Z,13.06
2023-03-18T19:17:07.447Z,13.05
2023-03-18T19:19:55.908Z,13.09
2023-03-18T19:22:44.570Z,13.20
2023-03-18T19:25:33.972Z,13.18
2023-03-18T19:28:47.830Z,12.57
2023-03-18T19:31:41.270Z,13.02
2023-03-18T19:34:32.038Z,12.90
2023-03-18T19:37:23.575Z,12.66
2023-03-18T19:40:23.696Z,12.73
2023-03-18T19:43:17.489Z,12.68
2023-03-18T19:46:07.490Z,12.64
2023-03-18T19:48:56.011Z,12.66
2023-03-18T19:51:44.696Z,12.57
2023-03-18T19:54:34.314Z,12.54
2023-03-18T19:57:25.630Z,12.40
2023-03-18T20:00:22.117Z,12.34
2023-03-18T20:03:15.864Z,12.29
2023-03-18T20:06:04.856Z,12.40
2023-03-18T20:08:53.472Z,12.36
2023-03-18T20:11:42.169Z,12.40
2023-03-18T20:14:37.542Z,12.36
2023-03-18T20:17:36.341Z,12.38
2023-03-18T20:20:28.342Z,12.42
2023-03-18T20:23:20.594Z,12.12
2023-03-18T20:26:09.176Z,12.29
2023-03-18T20:28:58.667Z,12.35
2023-03-18T20:31:47.405Z,12.26
2023-03-18T20:34:38.180Z,12.23
2023-03-18T20:37:32.035Z,12.11
2023-03-18T20:40:22.832Z,12.10
2023-03-18T20:43:15.141Z,12.15
2023-03-18T20:46:04.350Z,11.89
2023-03-18T20:48:53.236Z,12.12
2023-03-18T20:51:41.797Z,12.12
2023-03-18T20:54:32.507Z,12.20
2023-03-18T20:57:21.046Z,12.18
2023-03-18T21:00:16.832Z,12.34
2023-03-18T21:03:05.328Z,12.26
2023-03-18T21:05:56.079Z,12.25
2023-03-18T21:08:44.645Z,12.32
2023-03-18T21:11:34.642Z,12.31
2023-03-18T21:14:23.152Z,12.29
2023-03-18T21:17:20.391Z,12.34
2023-03-18T21:20:22.074Z,12.25
2023-03-18T21:23:22.436Z,12.27
2023-03-18T21:26:11.247Z,12.25
2023-03-18T21:29:01.241Z,12.28
2023-03-18T21:31:49.831Z,12.21
2023-03-18T21:34:38.309Z,12.18
2023-03-18T21:37:28.196Z,12.06
2023-03-18T21:40:19.185Z,12.08
2023-03-18T21:43:24.256Z,12.03
2023-03-18T21:46:16.197Z,11.90
2023-03-18T21:49:04.700Z,11.62
2023-03-18T21:51:53.219Z,11.74
2023-03-18T21:54:41.706Z,11.65
2023-03-18T21:57:30.828Z,11.64
2023-03-18T22:00:21.141Z,11.57
2023-03-18T22:03:15.611Z,11.59
2023-03-18T22:06:04.253Z,11.53
2023-03-18T22:08:52.813Z,11.46
2023-03-18T22:11:41.358Z,11.56
2023-03-18T22:14:29.852Z,11.49
2023-03-18T22:17:23.636Z,11.49
2023-03-18T22:20:14.409Z,11.40
2023-03-18T22:23:03.320Z,11.06
2023-03-18T22:25:53.280Z,11.44
2023-03-18T22:28:41.853Z,11.44
2023-03-18T22:31:31.339Z,11.30
2023-03-18T22:34:23.544Z,10.88
2023-03-18T22:37:15.977Z,11.10
2023-03-18T22:40:05.503Z,11.05
2023-03-18T22:42:55.771Z,11.04
2023-03-18T22:45:44.245Z,10.97
2023-03-18T22:48:33.132Z,10.91
2023-03-18T22:51:25.424Z,10.88
2023-03-18T22:54:18.659Z,10.88
2023-03-18T22:57:07.224Z,10.90
2023-03-18T22:59:58.270Z,10.78
2023-03-18T23:02:46.896Z,10.92
2023-03-18T23:05:35.580Z,10.87
2023-03-18T23:08:24.839Z,10.88
2023-03-18T23:11:15.241Z,10.99
2023-03-18T23:14:05.121Z,10.93
2023-03-18T23:16:53.672Z,10.89
2023-03-18T23:19:42.194Z,10.90
2023-03-18T23:22:33.310Z,10.99
2023-03-18T23:25:21.823Z,10.57
2023-03-18T23:28:11.817Z,11.17
2023-03-18T23:31:00.290Z,11.10
2023-03-18T23:33:48.926Z,11.01
2023-03-18T23:36:37.538Z,11.08
2023-03-18T23:39:26.073Z,11.21
2023-03-18T23:42:15.114Z,11.19
2023-03-18T23:45:05.965Z,11.20
2023-03-18T23:47:54.608Z,11.04
2023-03-18T23:50:43.099Z,11.17
2023-03-18T23:53:31.904Z,11.33
2023-03-18T23:56:20.549Z,11.32
2023-03-18T23:59:09.006Z,11.19
